Time;durP1;ratioP1;P1;durP2;ratioP2;P2;SDS_P1;SDS_P2;PMS_P1;PMS_P2;Temp;Humidity;BMP_temperature;BMP_pressure;BME280_temperature;BME280_humidity;BME280_pressure;Samples;Min_cycle;Max_cycle;Signal;HPM_P1;HPM_P2
2022/10/16 00:00:46;;;;;;;6.17;1.60;;;12.40;99.90;;;;;;5059489;28;20044;-83
2022/10/16 00:03:11;;;;;;;;;;;12.40;99.90;;;;;;5076711;28;20299;-82
2022/10/16 00:05:44;;;;;;;4.47;1.58;;;12.50;99.90;;;;;;5077277;28;19927;-82
2022/10/16 00:08:11;;;;;;;6.75;2.25;;;12.40;99.90;;;;;;5076902;28;20055;-80
2022/10/16 00:10:37;;;;;;;6.70;2.58;;;12.50;99.90;;;;;;5076973;28;20051;-82
2022/10/16 00:13:04;;;;;;;4.65;1.90;;;12.90;99.90;;;;;;5076793;28;20053;-82
2022/10/16 00:15:29;;;;;;;7.57;2.20;;;12.50;99.90;;;;;;5075519;28;20488;-83
2022/10/16 00:17:55;;;;;;;4.72;2.03;;;12.40;99.90;;;;;;5077221;28;20083;-82
2022/10/16 00:20:21;;;;;;;6.35;2.05;;;12.60;99.90;;;;;;5076549;28;20131;-81
2022/10/16 00:22:46;;;;;;;5.63;2.07;;;12.50;99.90;;;;;;5076664;28;20048;-81
2022/10/16 00:25:12;;;;;;;5.73;2.03;;;12.50;99.90;;;;;;5076624;28;20044;-82
2022/10/16 00:27:37;;;;;;;5.70;2.20;;;12.20;99.90;;;;;;5075379;28;20495;-82
2022/10/16 00:30:04;;;;;;;8.07;2.17;;;12.60;99.90;;;;;;5075228;28;20127;-82
2022/10/16 00:32:29;;;;;;;3.28;1.70;;;12.40;99.90;;;;;;5076519;28;20041;-81
2022/10/16 00:34:55;;;;;;;6.90;2.45;;;12.50;99.90;;;;;;5076449;28;20107;-79
2022/10/16 00:37:21;;;;;;;3.97;2.17;;;12.50;99.90;;;;;;5076307;28;20450;-81
2022/10/16 00:39:46;;;;;;;5.35;2.25;;;12.60;99.90;;;;;;5075408;28;20076;-82
2022/10/16 00:42:17;;;;;;;3.83;1.85;;;12.50;99.90;;;;;;5075340;28;20066;-81
2022/10/16 00:44:55;;;;;;;4.53;1.95;;;12.50;99.90;;;;;;5076053;28;20048;-82
2022/10/16 00:47:47;;;;;;;5.63;1.98;;;12.50;99.90;;;;;;5076429;28;20139;-83
2022/10/16 00:50:24;;;;;;;8.18;2.35;;;12.50;99.90;;;;;;5076564;28;20041;-81
2022/10/16 00:52:51;;;;;;;4.10;2.00;;;12.50;99.90;;;;;;5076130;28;20051;-79
2022/10/16 00:55:16;;;;;;;;;;;12.50;99.90;;;;;;5075277;28;20044;-83
2022/10/16 00:57:43;;;;;;;8.73;2.65;;;12.50;99.90;;;;;;5058402;28;20349;-79
2022/10/16 01:00:10;;;;;;;;;;;13.10;99.90;;;;;;5076418;28;20447;-80
2022/10/16 01:02:36;;;;;;;6.32;1.75;;;12.40;99.90;;;;;;5076233;28;19920;-80
2022/10/16 01:05:02;;;;;;;7.90;2.05;;;13.00;99.90;;;;;;5075866;28;20036;-80
2022/10/16 01:07:51;;;;;;;6.38;1.98;;;12.40;99.90;;;;;;5075761;28;20044;-83
2022/10/16 01:10:35;;;;;;;6.35;2.03;;;12.40;99.90;;;;;;5075894;28;20055;-80
2022/10/16 01:13:03;;;;;;;6.25;2.35;;;12.40;99.90;;;;;;5074957;28;20052;-81
2022/10/16 01:15:44;;;;;;;4.85;2.00;;;12.40;99.90;;;;;;5074502;28;20508;-79
2022/10/16 01:18:25;;;;;;;4.07;1.95;;;12.40;99.90;;;;;;5075594;28;20044;-82
2022/10/16 01:20:59;;;;;;;4.85;2.10;;;12.50;99.90;;;;;;5074861;28;20071;-82
2022/10/16 01:23:24;;;;;;;4.82;2.00;;;12.50;99.90;;;;;;5076022;28;20388;-80
2022/10/16 01:26:08;;;;;;;6.35;2.15;;;12.40;99.90;;;;;;5075257;28;20041;-80
2022/10/16 01:28:52;;;;;;;5.13;2.03;;;12.40;99.90;;;;;;5074445;28;20040;-81
2022/10/16 01:31:22;;;;;;;7.68;2.30;;;12.40;99.90;;;;;;5075623;28;20087;-80
2022/10/16 01:33:58;;;;;;;4.53;1.77;;;12.40;99.90;;;;;;5075359;28;20044;-83
2022/10/16 01:36:35;;;;;;;5.50;2.70;;;12.40;99.90;;;;;;5075618;28;20387;-79
2022/10/16 01:39:02;;;;;;;5.00;2.20;;;12.30;99.90;;;;;;5074002;28;20097;-79
2022/10/16 01:41:32;;;;;;;;;;;12.40;99.90;;;;;;5058247;28;20139;-81
2022/10/16 01:44:07;;;;;;;4.10;2.28;;;12.40;99.90;;;;;;5075157;28;19928;-81
2022/10/16 01:46:35;;;;;;;3.60;2.00;;;12.30;99.90;;;;;;5074476;28;20139;-81
2022/10/16 01:49:02;;;;;;;5.32;2.15;;;12.30;99.90;;;;;;5075032;28;20480;-83
2022/10/16 01:51:29;;;;;;;6.22;2.33;;;12.30;99.90;;;;;;5074662;28;20044;-79
2022/10/16 01:53:59;;;;;;;4.68;2.08;;;12.60;99.90;;;;;;5073774;28;20039;-79
2022/10/16 01:56:26;;;;;;;4.63;1.95;;;12.30;99.90;;;;;;5075200;28;20095;-80
2022/10/16 01:59:06;;;;;;;4.97;2.17;;;12.50;99.90;;;;;;5073583;28;20090;-80
2022/10/16 02:01:34;;;;;;;4.53;2.33;;;12.50;99.90;;;;;;5041156;28;20131;-83
2022/10/16 02:04:11;;;;;;;4.68;2.33;;;12.30;99.90;;;;;;5073659;28;20055;-83
2022/10/16 02:06:37;;;;;;;3.40;2.20;;;12.20;99.90;;;;;;5074789;28;20052;-82
2022/10/16 02:09:03;;;;;;;4.68;2.13;;;12.20;99.90;;;;;;5057029;28;20052;-82
2022/10/16 02:11:28;;;;;;;6.53;2.40;;;12.30;99.90;;;;;;5074570;28;20071;-82
2022/10/16 02:14:06;;;;;;;4.03;2.03;;;12.30;99.90;;;;;;5073356;28;20105;-82
2022/10/16 02:16:36;;;;;;;;;;;12.30;99.90;;;;;;5074829;28;20044;-81
2022/10/16 02:19:03;;;;;;;3.08;1.95;;;12.30;99.90;;;;;;5074638;28;19920;-83
2022/10/16 02:21:34;;;;;;;2.85;1.60;;;12.30;99.90;;;;;;5073400;28;20048;-80
2022/10/16 02:24:28;;;;;;;6.53;2.15;;;12.30;99.90;;;;;;5074691;28;20084;-80
2022/10/16 02:27:06;;;;;;;5.47;2.15;;;12.30;99.90;;;;;;5074280;28;20086;-80
2022/10/16 02:29:34;;;;;;;6.03;2.10;;;12.30;99.90;;;;;;5074325;28;20048;-80
2022/10/16 02:32:04;;;;;;;3.45;1.63;;;12.70;99.90;;;;;;5074198;28;20041;-80
2022/10/16 02:34:32;;;;;;;5.80;2.03;;;12.30;99.90;;;;;;5074038;28;20036;-82
2022/10/16 02:37:00;;;;;;;6.57;2.10;;;12.80;99.90;;;;;;5074138;28;20045;-80
2022/10/16 02:39:28;;;;;;;6.18;1.95;;;12.30;99.90;;;;;;5073186;28;20379;-82
2022/10/16 02:41:54;;;;;;;4.60;2.17;;;12.40;99.90;;;;;;5074416;28;20543;-82
2022/10/16 02:44:20;;;;;;;4.30;1.90;;;12.20;99.90;;;;;;5073805;28;20048;-80
2022/10/16 02:46:45;;;;;;;4.68;1.80;;;12.60;99.90;;;;;;5074394;28;20052;-80
2022/10/16 02:49:11;;;;;;;5.30;2.00;;;12.30;99.90;;;;;;5074357;28;20041;-81
2022/10/16 02:51:36;;;;;;;4.78;2.00;;;12.20;99.90;;;;;;5072970;28;20040;-83
2022/10/16 02:54:03;;;;;;;6.63;2.03;;;12.30;99.90;;;;;;5073826;28;20079;-82
2022/10/16 02:56:29;;;;;;;6.00;2.03;;;12.30;99.90;;;;;;5072671;28;20052;-80
2022/10/16 02:58:55;;;;;;;4.88;1.92;;;12.60;99.90;;;;;;5056616;28;20286;-81
2022/10/16 03:01:21;;;;;;;5.18;2.00;;;12.50;99.90;;;;;;5055125;28;20433;-80
2022/10/16 03:03:47;;;;;;;2.78;2.00;;;12.40;99.90;;;;;;5073881;28;20080;-83
2022/10/16 03:06:12;;;;;;;6.70;1.80;;;12.60;99.90;;;;;;5072994;28;20393;-82
2022/10/16 03:08:38;;;;;;;5.10;1.98;;;12.40;99.90;;;;;;5073537;28;20045;-82
2022/10/16 03:11:04;;;;;;;5.07;2.00;;;13.10;99.90;;;;;;5073702;28;20047;-81
2022/10/16 03:13:29;;;;;;;5.97;1.98;;;12.50;99.90;;;;;;5072931;28;20052;-83
2022/10/16 03:15:55;;;;;;;3.17;1.88;;;12.50;99.90;;;;;;5072514;28;20357;-81
2022/10/16 03:18:21;;;;;;;3.40;1.90;;;12.60;99.90;;;;;;5072763;28;20036;-81
2022/10/16 03:20:46;;;;;;;4.22;2.08;;;12.60;99.90;;;;;;5072700;28;20108;-82
2022/10/16 03:23:12;;;;;;;3.65;1.80;;;12.60;99.90;;;;;;5072693;28;20070;-80
2022/10/16 03:25:38;;;;;;;5.90;2.08;;;12.60;99.90;;;;;;5072612;28;20052;-82
2022/10/16 03:28:04;;;;;;;4.75;1.75;;;12.60;99.90;;;;;;5072829;28;20045;-82
2022/10/16 03:30:30;;;;;;;5.18;2.10;;;12.60;99.90;;;;;;5073608;28;20128;-79
2022/10/16 03:32:55;;;;;;;5.38;2.03;;;12.70;99.90;;;;;;5072571;28;20049;-82
2022/10/16 03:35:22;;;;;;;3.88;1.95;;;13.00;99.90;;;;;;5073440;28;20432;-79
2022/10/16 03:37:48;;;;;;;5.03;2.22;;;12.70;99.90;;;;;;5073420;28;20049;-80
2022/10/16 03:40:14;;;;;;;6.83;2.10;;;12.80;99.90;;;;;;5073332;28;20044;-81
2022/10/16 03:42:41;;;;;;;4.82;2.42;;;12.50;99.90;;;;;;5072987;28;20458;-81
2022/10/16 03:45:07;;;;;;;;;;;12.80;99.90;;;;;;5072521;28;20053;-81
2022/10/16 03:47:33;;;;;;;4.75;2.25;;;12.80;99.90;;;;;;5073442;28;20257;-83
2022/10/16 03:49:59;;;;;;;4.78;2.22;;;12.80;99.90;;;;;;5073400;28;20045;-83
2022/10/16 03:52:25;;;;;;;4.15;2.13;;;12.90;99.90;;;;;;5073946;28;20388;-79
2022/10/16 03:54:51;;;;;;;2.47;1.70;;;12.90;99.90;;;;;;5073296;28;20127;-80
2022/10/16 03:57:17;;;;;;;3.28;2.20;;;12.60;99.90;;;;;;5073792;28;20487;-81
2022/10/16 03:59:43;;;;;;;3.85;2.40;;;12.90;99.90;;;;;;5073251;28;20041;-83
2022/10/16 04:02:09;;;;;;;4.63;2.42;;;13.30;99.90;;;;;;5073307;28;20383;-81
2022/10/16 04:04:34;;;;;;;4.60;2.53;;;13.30;99.90;;;;;;5071981;28;20037;-79
2022/10/16 04:07:00;;;;;;;4.45;2.38;;;12.90;99.90;;;;;;5072067;28;20098;-82
2022/10/16 04:09:26;;;;;;;6.20;2.58;;;12.90;99.90;;;;;;5073202;28;20044;-79
2022/10/16 04:11:51;;;;;;;4.20;2.65;;;12.80;99.90;;;;;;5073581;28;20497;-82
2022/10/16 04:14:17;;;;;;;4.43;2.47;;;12.60;99.90;;;;;;5076650;28;20047;-81
2022/10/16 04:16:42;;;;;;;3.55;2.40;;;12.80;99.90;;;;;;5076806;28;20480;-80
2022/10/16 04:19:09;;;;;;;3.83;2.60;;;13.20;99.90;;;;;;5076779;28;20502;-79
2022/10/16 04:21:35;;;;;;;3.80;2.33;;;12.80;99.90;;;;;;5075694;28;20045;-80
2022/10/16 04:24:00;;;;;;;4.10;2.60;;;12.70;99.90;;;;;;5075369;28;20063;-80
2022/10/16 04:26:26;;;;;;;4.70;2.73;;;12.70;99.90;;;;;;5076615;28;20048;-80
2022/10/16 04:28:51;;;;;;;3.92;2.78;;;12.70;99.90;;;;;;5075397;28;20594;-83
2022/10/16 04:31:17;;;;;;;4.20;2.35;;;12.80;99.90;;;;;;5076547;28;20045;-81
2022/10/16 04:33:43;;;;;;;4.75;2.60;;;12.80;99.90;;;;;;5076515;28;20097;-79
2022/10/16 04:36:09;;;;;;;3.50;2.50;;;13.10;99.90;;;;;;5075300;28;20417;-83
2022/10/16 04:38:37;;;;;;;4.18;3.13;;;12.60;99.90;;;;;;5076529;28;20101;-82
2022/10/16 04:41:03;;;;;;;6.30;2.90;;;12.60;99.90;;;;;;5076352;28;20044;-80
2022/10/16 04:43:28;;;;;;;7.77;2.80;;;12.60;99.90;;;;;;5075177;28;20567;-80
2022/10/16 04:45:54;;;;;;;5.03;3.35;;;12.30;99.90;;;;;;5076392;28;20095;-82
2022/10/16 04:48:20;;;;;;;10.32;3.72;;;12.80;99.90;;;;;;5076204;28;20130;-79
2022/10/16 04:50:45;;;;;;;5.05;2.90;;;12.60;99.90;;;;;;5075535;28;20045;-82
2022/10/16 04:53:11;;;;;;;3.92;2.65;;;12.60;99.90;;;;;;5075965;28;20044;-81
2022/10/16 04:55:37;;;;;;;4.25;2.97;;;12.60;99.90;;;;;;5076035;28;20047;-79
2022/10/16 04:58:03;;;;;;;3.87;2.60;;;13.30;99.90;;;;;;5076501;28;20133;-80
2022/10/16 05:00:29;;;;;;;5.57;2.92;;;12.50;99.90;;;;;;5075873;28;20080;-83
2022/10/16 05:02:55;;;;;;;6.70;3.05;;;12.50;99.90;;;;;;5075109;28;20045;-79
2022/10/16 05:05:20;;;;;;;4.45;3.13;;;12.60;99.90;;;;;;5074755;28;20040;-80
2022/10/16 05:07:49;;;;;;;3.77;2.97;;;13.00;99.90;;;;;;5076470;28;20043;-80
2022/10/16 05:10:15;;;;;;;4.65;3.00;;;12.50;99.90;;;;;;5074840;28;20037;-80
2022/10/16 05:12:41;;;;;;;6.10;3.35;;;12.50;99.90;;;;;;5076003;28;20048;-81
2022/10/16 05:15:07;;;;;;;4.78;2.97;;;12.50;99.90;;;;;;5075663;28;20047;-81
2022/10/16 05:17:33;;;;;;;5.40;2.97;;;12.50;99.90;;;;;;5075654;28;20547;-82
2022/10/16 05:19:58;;;;;;;4.97;3.05;;;12.50;99.90;;;;;;5075680;28;20286;-81
2022/10/16 05:22:24;;;;;;;4.00;2.72;;;12.50;99.90;;;;;;5075611;28;20488;-82
2022/10/16 05:24:49;;;;;;;5.35;3.08;;;13.00;99.90;;;;;;5074233;28;20063;-80
2022/10/16 05:27:18;;;;;;;6.18;3.28;;;12.50;99.90;;;;;;5075542;28;20173;-81
2022/10/16 05:29:48;;;;;;;4.00;2.58;;;12.50;99.90;;;;;;5075429;28;20059;-83
2022/10/16 05:32:16;;;;;;;4.53;2.80;;;12.40;99.90;;;;;;5074449;28;20392;-77
2022/10/16 05:34:42;;;;;;;5.25;2.80;;;12.40;99.90;;;;;;5074221;28;20123;-79
2022/10/16 05:37:08;;;;;;;3.60;2.75;;;12.50;99.90;;;;;;5075297;28;20040;-80
2022/10/16 05:39:34;;;;;;;5.23;2.83;;;12.40;99.90;;;;;;5075223;28;20110;-82
2022/10/16 05:41:59;;;;;;;5.38;2.40;;;12.40;99.90;;;;;;5057685;28;20037;-79
2022/10/16 05:44:25;;;;;;;3.58;2.92;;;12.60;99.90;;;;;;5074144;28;20063;-78
2022/10/16 05:46:50;;;;;;;5.00;2.92;;;12.80;99.90;;;;;;5075527;28;20064;-79
2022/10/16 05:49:16;;;;;;;4.15;2.65;;;12.00;99.90;;;;;;5073855;28;20480;-79
2022/10/16 05:51:42;;;;;;;5.53;2.75;;;12.30;99.90;;;;;;5074989;28;20048;-81
2022/10/16 05:54:08;;;;;;;4.75;2.65;;;12.30;99.90;;;;;;5074841;28;20071;-79
2022/10/16 05:56:34;;;;;;;3.90;2.67;;;12.30;99.90;;;;;;5074288;28;20048;-81
2022/10/16 05:58:59;;;;;;;3.40;2.60;;;12.30;99.90;;;;;;5075231;28;20047;-81
2022/10/16 06:01:25;;;;;;;6.78;2.60;;;12.40;99.90;;;;;;5074844;28;20048;-80
2022/10/16 06:03:51;;;;;;;3.72;2.50;;;12.50;99.90;;;;;;5074779;28;20036;-82
2022/10/16 06:06:20;;;;;;;5.35;2.58;;;12.30;99.90;;;;;;5074701;28;20040;-78
2022/10/16 06:08:47;;;;;;;4.07;2.72;;;12.30;99.90;;;;;;5073553;28;20495;-80
2022/10/16 06:11:16;;;;;;;4.03;2.53;;;12.40;99.90;;;;;;5074576;28;20048;-78
2022/10/16 06:13:42;;;;;;;5.18;2.13;;;12.40;99.90;;;;;;5074554;28;20040;-78
2022/10/16 06:16:09;;;;;;;5.65;2.45;;;12.40;99.90;;;;;;5074461;28;20044;-81
2022/10/16 06:18:35;;;;;;;5.57;2.85;;;12.30;99.90;;;;;;5074500;28;20048;-79
2022/10/16 06:21:11;;;;;;;4.60;2.30;;;12.40;99.90;;;;;;5074145;28;20040;-79
2022/10/16 06:23:37;;;;;;;6.93;2.45;;;12.40;99.90;;;;;;5074501;28;20044;-82
2022/10/16 06:26:12;;;;;;;5.00;2.50;;;12.40;99.90;;;;;;5074343;28;20123;-82
2022/10/16 06:28:38;;;;;;;4.38;2.33;;;12.40;99.90;;;;;;5074252;28;20040;-80
2022/10/16 06:31:05;;;;;;;5.55;2.25;;;12.80;99.90;;;;;;5074147;28;20507;-79
2022/10/16 06:33:31;;;;;;;4.55;2.33;;;12.50;99.90;;;;;;5072944;28;20094;-80
2022/10/16 06:36:03;;;;;;;3.92;2.38;;;12.70;99.90;;;;;;5072688;28;20033;-78
2022/10/16 06:38:29;;;;;;;5.20;2.25;;;13.00;99.90;;;;;;5073951;28;20439;-82
2022/10/16 06:40:54;;;;;;;5.57;2.33;;;12.50;99.90;;;;;;5073296;28;20040;-82
2022/10/16 06:43:20;;;;;;;4.38;2.13;;;12.50;99.90;;;;;;5074081;28;20045;-81
2022/10/16 06:45:53;;;;;;;3.28;2.30;;;12.60;99.90;;;;;;5073681;28;20052;-81
2022/10/16 06:48:19;;;;;;;2.63;2.03;;;12.70;99.90;;;;;;5073926;28;20154;-82
2022/10/16 06:51:05;;;;;;;5.50;2.57;;;12.60;99.90;;;;;;5073700;28;20430;-80
2022/10/16 06:53:33;;;;;;;4.35;2.33;;;12.60;99.90;;;;;;5074109;28;20271;-79
2022/10/16 06:56:10;;;;;;;3.83;2.35;;;12.70;99.90;;;;;;5074096;28;20101;-79
2022/10/16 06:58:36;;;;;;;3.43;2.33;;;12.80;99.90;;;;;;5074130;28;20040;-77
2022/10/16 07:01:02;;;;;;;4.40;2.25;;;12.70;99.90;;;;;;5073581;28;20094;-79
2022/10/16 07:03:28;;;;;;;4.23;2.13;;;12.70;99.90;;;;;;5073885;28;20131;-79
2022/10/16 07:05:53;;;;;;;4.07;2.13;;;12.90;99.90;;;;;;5073801;28;20170;-78
2022/10/16 07:08:19;;;;;;;6.43;2.13;;;12.80;99.90;;;;;;5073774;28;20063;-79
2022/10/16 07:10:44;;;;;;;5.53;2.05;;;12.80;99.90;;;;;;5073817;28;20093;-80
2022/10/16 07:13:13;;;;;;;4.22;2.25;;;12.90;99.90;;;;;;5073746;28;20481;-79
2022/10/16 07:15:39;;;;;;;4.28;2.53;;;12.90;99.90;;;;;;5073560;28;20067;-78
2022/10/16 07:18:04;;;;;;;5.15;2.33;;;13.30;99.90;;;;;;5072634;28;20051;-83
2022/10/16 07:20:30;;;;;;;3.75;2.05;;;13.00;99.90;;;;;;5073696;28;20048;-80
2022/10/16 07:22:55;;;;;;;6.57;2.05;;;13.00;99.90;;;;;;5073958;28;20044;-83
2022/10/16 07:25:21;;;;;;;3.50;2.08;;;13.00;99.90;;;;;;5072287;28;20422;-83
2022/10/16 07:27:47;;;;;;;4.15;2.30;;;12.70;99.90;;;;;;5073611;28;20070;-82
2022/10/16 07:30:12;;;;;;;2.90;1.88;;;13.10;99.90;;;;;;5073527;28;20049;-79
2022/10/16 07:32:38;;;;;;;3.80;2.58;;;13.10;99.90;;;;;;5073268;28;20068;-80
2022/10/16 07:35:04;;;;;;;3.35;2.40;;;13.10;99.90;;;;;;5072627;28;20091;-81
2022/10/16 07:37:29;;;;;;;8.03;2.50;;;13.10;99.90;;;;;;5073710;28;20044;-79
2022/10/16 07:39:55;;;;;;;8.23;7.63;;;13.10;99.90;;;;;;5073494;28;20210;-78
2022/10/16 07:42:21;;;;;;;5.00;2.30;;;13.20;99.90;;;;;;5073263;28;20083;-78
2022/10/16 07:44:46;;;;;;;5.30;2.28;;;13.30;99.90;;;;;;5073232;28;20469;-79
2022/10/16 07:47:12;;;;;;;3.60;2.30;;;13.40;99.90;;;;;;5074204;28;20397;-80
2022/10/16 07:49:37;;;;;;;3.90;2.08;;;13.90;99.90;;;;;;5076717;28;20135;-81
2022/10/16 07:52:03;;;;;;;6.85;2.42;;;13.60;99.90;;;;;;5075537;28;20055;-83
2022/10/16 07:54:29;;;;;;;7.25;2.60;;;13.60;99.90;;;;;;5059510;28;20048;-83
2022/10/16 07:56:55;;;;;;;4.68;2.55;;;13.60;99.90;;;;;;5077200;28;20096;-82
2022/10/16 07:59:20;;;;;;;5.95;2.40;;;13.60;99.90;;;;;;5075788;28;20507;-78
2022/10/16 08:01:46;;;;;;;5.87;2.40;;;13.60;99.90;;;;;;5076989;28;20040;-80
2022/10/16 08:04:12;;;;;;;3.70;1.92;;;13.70;99.90;;;;;;5075248;28;20435;-79
2022/10/16 08:06:39;;;;;;;4.55;2.28;;;13.70;99.90;;;;;;5075790;28;20079;-79
2022/10/16 08:09:06;;;;;;;4.35;2.03;;;13.70;99.90;;;;;;5058568;28;20094;-80
2022/10/16 08:11:32;;;;;;;4.15;1.70;;;13.70;99.90;;;;;;5075469;28;20063;-82
2022/10/16 08:13:58;;;;;;;5.78;2.05;;;14.10;99.90;;;;;;5057996;28;20407;-82
2022/10/16 08:16:24;;;;;;;3.88;2.00;;;13.80;99.90;;;;;;5074423;28;20132;-84
2022/10/16 08:18:51;;;;;;;3.63;1.85;;;13.90;99.90;;;;;;5075627;28;20047;-79
2022/10/16 08:21:17;;;;;;;;;;;13.90;99.90;;;;;;5059225;28;20045;-81
2022/10/16 08:23:44;;;;;;;3.72;1.75;;;14.70;99.90;;;;;;5058506;28;19921;-82
2022/10/16 08:26:10;;;;;;;2.97;1.73;;;13.90;99.90;;;;;;5076372;28;20072;-84
2022/10/16 08:28:36;;;;;;;4.00;1.77;;;14.10;99.90;;;;;;5058214;28;20477;-83
2022/10/16 08:31:07;;;;;;;9.20;1.90;;;14.10;99.90;;;;;;5075257;28;20373;-82
2022/10/16 08:33:34;;;;;;;2.80;1.50;;;14.10;99.90;;;;;;5075226;28;20095;-82
2022/10/16 08:36:00;;;;;;;2.92;1.55;;;14.20;99.90;;;;;;5074856;28;20075;-83
2022/10/16 08:38:26;;;;;;;4.93;1.70;;;14.20;99.90;;;;;;5076141;28;20472;-81
2022/10/16 08:40:56;;;;;;;3.40;1.88;;;14.30;99.90;;;;;;5058096;28;20127;-81
2022/10/16 08:43:46;;;;;;;2.80;1.50;;;14.40;99.90;;;;;;5074497;28;20040;-82
2022/10/16 08:46:40;;;;;;;3.58;1.73;;;14.40;99.90;;;;;;5074547;28;20526;-80
2022/10/16 08:49:11;;;;;;;3.53;1.60;;;14.50;99.90;;;;;;5074803;28;20087;-82
2022/10/16 08:51:38;;;;;;;4.45;1.70;;;14.60;99.90;;;;;;5074851;28;20079;-84
2022/10/16 08:54:22;;;;;;;5.32;1.60;;;15.00;99.90;;;;;;5074151;28;20056;-84
2022/10/16 08:56:48;;;;;;;6.88;2.05;;;15.20;99.90;;;;;;5058417;28;20048;-81
2022/10/16 08:59:16;;;;;;;2.73;1.67;;;14.80;99.90;;;;;;5074393;28;20504;-80
2022/10/16 09:01:45;;;;;;;4.85;1.85;;;14.90;99.90;;;;;;5075659;28;20041;-83
2022/10/16 09:04:38;;;;;;;4.45;1.92;;;14.90;99.90;;;;;;5057054;28;20071;-82
2022/10/16 09:07:27;;;;;;;4.07;1.85;;;15.00;99.90;;;;;;5054327;28;20489;-83
2022/10/16 09:10:08;;;;;;;4.47;1.90;;;15.00;99.90;;;;;;5054498;28;20087;-84
2022/10/16 09:13:00;;;;;;;4.70;1.58;;;15.10;99.90;;;;;;5037433;28;20515;-82
2022/10/16 09:15:28;;;;;;;3.55;1.50;;;15.20;99.90;;;;;;5054946;28;20061;-84
2022/10/16 09:18:18;;;;;;;3.88;1.70;;;15.20;99.90;;;;;;5054617;28;20041;-82
2022/10/16 09:20:53;;;;;;;6.28;1.70;;;15.20;99.90;;;;;;5054497;28;20067;-87
2022/10/16 09:23:26;;;;;;;5.72;1.90;;;15.30;99.90;;;;;;5054574;28;20057;-79
2022/10/16 09:25:54;;;;;;;4.63;1.58;;;15.30;99.90;;;;;;5066345;28;20036;-82
2022/10/16 09:28:19;;;;;;;4.07;1.50;;;15.90;99.90;;;;;;5074256;28;20369;-82
2022/10/16 09:30:48;;;;;;;3.53;1.50;;;15.40;99.90;;;;;;5074357;28;20040;-82
2022/10/16 09:33:15;;;;;;;27.95;25.83;;;15.50;99.90;;;;;;5075268;28;20049;-81
2022/10/16 09:35:48;;;;;;;3.97;1.50;;;15.60;99.90;;;;;;5074151;28;20040;-81
2022/10/16 09:38:24;;;;;;;9.25;1.70;;;15.70;99.90;;;;;;5075291;28;20473;-82
2022/10/16 09:40:51;;;;;;;9.70;2.15;;;15.60;99.90;;;;;;5073939;28;20044;-79
2022/10/16 09:43:20;;;;;;;5.55;1.45;;;15.80;99.90;;;;;;5075250;28;20389;-82
2022/10/16 09:46:27;;;;;;;4.63;1.55;;;15.90;99.90;;;;;;5074788;28;20055;-81
2022/10/16 09:48:56;;;;;;;5.35;1.67;;;15.90;99.90;;;;;;5072104;28;20048;-81
2022/10/16 09:51:36;;;;;;;3.30;1.35;;;16.20;99.90;;;;;;5074805;28;20120;-81
2022/10/16 09:54:17;;;;;;;6.00;1.63;;;16.10;99.90;;;;;;5074452;28;20047;-79
2022/10/16 09:56:45;;;;;;;6.95;1.85;;;16.10;99.90;;;;;;5074939;28;20084;-81
2022/10/16 09:59:26;;;;;;;7.03;1.75;;;16.20;99.90;;;;;;5074588;28;20048;-83
2022/10/16 10:01:54;;;;;;;5.65;1.60;;;16.20;99.90;;;;;;5075235;28;20502;-82
2022/10/16 10:04:25;;;;;;;7.95;2.13;;;16.30;99.90;;;;;;5074844;28;20102;-81
2022/10/16 10:06:56;;;;;;;6.05;2.20;;;16.30;99.90;;;;;;5074716;28;20405;-82
2022/10/16 10:09:29;;;;;;;4.90;1.55;;;16.30;99.90;;;;;;5074392;28;20045;-79
2022/10/16 10:12:00;;;;;;;5.47;1.75;;;16.30;99.90;;;;;;5073850;28;20040;-83
2022/10/16 10:14:25;;;;;;;8.73;2.13;;;16.30;99.90;;;;;;5074567;28;20041;-84
2022/10/16 10:17:01;;;;;;;7.13;1.70;;;16.30;99.90;;;;;;5074650;28;20055;-80
2022/10/16 10:19:27;;;;;;;7.97;1.80;;;16.20;99.90;;;;;;5073612;28;20081;-84
2022/10/16 10:21:53;;;;;;;6.22;1.58;;;16.40;99.90;;;;;;5091073;28;20045;-81
2022/10/16 10:24:19;;;;;;;6.63;1.67;;;16.70;99.90;;;;;;5074936;28;20055;-80
2022/10/16 10:26:55;;;;;;;8.20;2.15;;;16.50;99.90;;;;;;5073576;28;20048;-83
2022/10/16 10:29:45;;;;;;;9.95;1.95;;;16.50;99.90;;;;;;5074095;28;20055;-82
2022/10/16 10:32:22;;;;;;;4.75;1.55;;;16.60;99.90;;;;;;5074260;28;20619;-78
2022/10/16 10:35:11;;;;;;;12.75;2.00;;;16.60;99.90;;;;;;5073921;28;20476;-83
2022/10/16 10:38:03;;;;;;;8.68;2.08;;;16.70;99.90;;;;;;5073702;28;20052;-83
2022/10/16 10:40:52;;;;;;;9.70;1.80;;;16.70;99.90;;;;;;5074124;28;20044;-84
2022/10/16 10:43:23;;;;;;;8.88;2.08;;;16.80;99.90;;;;;;5074134;28;20136;-82
2022/10/16 10:45:54;;;;;;;6.40;1.83;;;17.00;99.90;;;;;;5074066;28;20078;-82
2022/10/16 10:48:24;;;;;;;5.72;1.60;;;17.10;99.90;;;;;;5073963;28;20484;-83
2022/10/16 10:50:57;;;;;;;8.50;1.83;;;17.30;99.90;;;;;;5073110;28;20080;-82
2022/10/16 10:53:48;;;;;;;7.00;1.77;;;17.50;99.90;;;;;;5074483;28;20400;-83
2022/10/16 10:56:32;;;;;;;7.22;2.08;;;17.10;99.90;;;;;;5089962;28;20045;-80
2022/10/16 10:59:35;;;;;;;6.28;1.75;;;17.10;99.90;;;;;;5074072;28;20040;-82
2022/10/16 11:02:13;;;;;;;5.63;1.60;;;17.00;99.90;;;;;;5073871;28;20131;-80
2022/10/16 11:04:41;;;;;;;4.68;1.55;;;17.10;99.90;;;;;;5077045;28;20059;-82
2022/10/16 11:07:33;;;;;;;8.05;2.00;;;17.20;99.90;;;;;;5077608;28;20048;-78
2022/10/16 11:10:13;;;;;;;7.30;1.80;;;17.30;99.90;;;;;;5057537;28;20048;-79
2022/10/16 11:12:47;;;;;;;8.60;2.03;;;17.20;99.90;;;;;;5074109;28;20049;-81
2022/10/16 11:15:20;;;;;;;8.30;2.30;;;17.00;99.90;;;;;;5073689;28;20040;-80
2022/10/16 11:18:07;;;;;;;6.57;2.10;;;17.10;99.90;;;;;;5073917;28;20438;-83
2022/10/16 11:20:40;;;;;;;7.50;1.80;;;17.10;99.90;;;;;;5073391;28;20063;-82
2022/10/16 11:23:16;;;;;;;8.00;1.65;;;17.60;99.90;;;;;;5073625;28;20049;-79
2022/10/16 11:25:43;;;;;;;6.63;2.17;;;17.10;99.90;;;;;;5072495;28;20072;-82
2022/10/16 11:28:21;;;;;;;5.97;1.95;;;17.00;99.90;;;;;;5074121;28;20076;-79
2022/10/16 11:30:50;;;;;;;10.38;1.98;;;16.90;99.90;;;;;;5074174;28;20119;-81
2022/10/16 11:33:35;;;;;;;8.45;1.85;;;16.90;99.90;;;;;;5072575;28;20047;-80
2022/10/16 11:36:03;;;;;;;9.13;2.05;;;16.80;99.90;;;;;;5072309;28;20051;-80
2022/10/16 11:38:32;;;;;;;6.88;1.80;;;17.10;99.90;;;;;;5073044;28;20507;-82
2022/10/16 11:41:27;;;;;;;7.40;2.00;;;16.80;99.90;;;;;;5072248;28;20408;-82
2022/10/16 11:44:17;;;;;;;5.80;1.55;;;17.20;99.90;;;;;;5065179;28;20132;-80
2022/10/16 11:46:50;;;;;;;7.28;1.83;;;17.30;99.90;;;;;;5073705;28;20122;-78
2022/10/16 11:49:21;;;;;;;6.57;1.95;;;17.30;99.90;;;;;;5073129;28;20047;-77
2022/10/16 11:52:01;;;;;;;10.43;1.70;;;17.10;99.90;;;;;;5073367;28;20076;-81
2022/10/16 11:54:34;;;;;;;6.80;1.98;;;17.00;99.90;;;;;;5073660;28;20138;-79
2022/10/16 11:57:07;;;;;;;8.15;2.08;;;16.90;99.90;;;;;;5072376;28;20054;-79
2022/10/16 11:59:49;;;;;;;7.53;1.80;;;16.80;99.90;;;;;;5073586;28;20446;-81
2022/10/16 12:02:26;;;;;;;8.75;2.03;;;16.90;99.90;;;;;;5073316;28;20123;-81
2022/10/16 12:05:11;;;;;;;9.35;1.90;;;17.00;99.90;;;;;;5076219;28;20040;-85
2022/10/16 12:07:43;;;;;;;10.25;1.88;;;16.90;99.90;;;;;;5068181;28;20504;-81
2022/10/16 12:10:26;;;;;;;7.30;2.00;;;17.50;99.90;;;;;;5035675;28;20048;-84
2022/10/16 12:12:56;;;;;;;8.15;2.25;;;17.30;99.90;;;;;;5036087;28;20143;-84
2022/10/16 12:15:30;;;;;;;8.75;2.00;;;17.10;99.90;;;;;;5053141;28;20519;-86
2022/10/16 12:17:56;;;;;;;5.75;1.80;;;17.60;99.90;;;;;;5035954;28;20052;-83
2022/10/16 12:20:30;;;;;;;6.13;1.80;;;17.50;99.90;;;;;;5052349;28;20037;-85
2022/10/16 12:23:06;;;;;;;9.02;2.17;;;17.80;99.90;;;;;;5052483;28;20496;-86
2022/10/16 12:25:34;;;;;;;7.85;2.00;;;18.00;99.90;;;;;;5052662;28;20049;-85
2022/10/16 12:28:02;;;;;;;8.52;2.00;;;18.00;99.90;;;;;;5052225;28;20045;-87
2022/10/16 12:30:31;;;;;;;9.38;2.45;;;18.10;99.90;;;;;;5053441;28;20048;-85
2022/10/16 12:33:25;;;;;;;5.65;1.80;;;18.80;99.90;;;;;;5035581;28;20477;-83
2022/10/16 12:35:51;;;;;;;6.55;1.88;;;18.20;99.90;;;;;;5070074;28;20045;-83
2022/10/16 12:38:20;;;;;;;9.23;1.97;;;18.30;99.90;;;;;;5038640;28;20049;-84
2022/10/16 12:41:04;;;;;;;8.25;1.98;;;18.30;99.90;;;;;;5038389;28;20292;-82
2022/10/16 12:43:46;;;;;;;6.55;1.70;;;18.30;99.90;;;;;;5039658;28;20439;-86
2022/10/16 12:46:15;;;;;;;3.65;1.38;;;18.40;99.90;;;;;;5056810;28;20056;-84
2022/10/16 12:48:47;;;;;;;5.60;2.20;;;18.40;99.90;;;;;;5039080;28;20139;-83
2022/10/16 12:51:28;;;;;;;4.80;1.70;;;18.30;99.90;;;;;;5052449;28;20044;-87
2022/10/16 12:54:16;;;;;;;7.20;2.00;;;18.40;99.90;;;;;;5076465;28;20127;-86
2022/10/16 12:57:12;;;;;;;11.82;1.70;;;18.30;99.90;;;;;;5077701;28;20498;-85
2022/10/16 13:00:09;;;;;;;6.88;1.75;;;18.30;99.90;;;;;;5075845;28;20044;-87
2022/10/16 13:02:56;;;;;;;7.53;1.65;;;18.60;99.90;;;;;;5055619;28;20052;-86
2022/10/16 13:05:25;;;;;;;6.28;1.60;;;18.10;99.90;;;;;;5077993;28;20063;-81